Springdale, AR (72764)

11:32 PM CDT on October 22, 2014 (GMT -0500)
Near Fayetteville Botanical Gardens | Change Station
CLOSE
Current Station
Personal Weather Station
Location: Springdale, AR
Elevation: 1326 ft
Nearby Weather Stations

Elev 1326 ft 36.16 °N, 94.12 °W | Updated 19 seconds ago

Clear
Clear
56.6 °F
Feels Like 56.6 °F
N
0.0
Wind Variable Wind from SSE
Gusts 0.0 mph

Today
High -- | Low -- °F
--% Chance of Precip.
Yesterday
High -- | Low -- °F
Precip. -- in
7:29 AM 6:31 PM
Waning Crescent, 1% visible
Pressure 30.19 in
Visibility 10.0 miles
Clouds Clear
Dew Point 53 °F
Humidity 89%
Rainfall 0.00 in
Snow Depth Not available.
UV 0 out of 12
Pollen 3.80 out of 12
Air Quality Not available.
Flu Activity Sporadic
METAR KASG 230148Z 15004KT 10SM SKC 16/11 A3019 RMK LAST

More Conditions Fewer Conditions

Pressure 30.19 in
Visibility 10.0 miles
Clouds Clear
Dew Point 53 °F
Humidity 89%
Rainfall 0.00 in
Snow Depth Not available.
UV 0 out of 12
Pollen 3.80 out of 12
Air Quality Not available.
Flu Activity Sporadic
METAR KASG 230148Z 15004KT 10SM SKC 16/11 A3019 RMK LAST

More Conditions Fewer Conditions

Nowcast | as of 10:57 PM CDT on October 22, 2014

At 10:57 PM...Doppler radars detected scattered showers crossing into Pawnee...Osage...creek and Okfuskee counties. This activity extended north to south...was moving to the northeast at around 25 mph. Through 1 am...occasional showers will be possible for portions of eastern Oklahoma...mainly along and west of Highway 75. The majority of this activity will consist of light showers... resulting in average hourly rainfall of less than one tenth of an inch. Embedded moderate rainfall will be possible...and may produce amounts of just over a tenth of an inch.

×

10-Day Weather Forecast

Almanac

Astronomy

Oct. 22, 2014 Rise Set
Actual Time 7:29 AM CDT 6:31 PM CDT
Civil Twilight 7:03 AM CDT 6:57 PM CDT
Nautical Twilight 6:33 AM CDT 7:27 PM CDT
Astronomical Twilight 6:03 AM CDT 7:57 PM CDT
Moon 6:13 AM CDT (10/22) 5:57 PM CDT (10/22)
Length of Visible Light 11h 54m
Length of Day
11h 01m
Tomorrow will be 2m 9s shorter.
Waning Crescent, 1% of the Moon is Illuminated
Oct 23
Waning Crescent
Oct 23
New
Oct 30
First Quarter
Nov 6
Full
Nov 14
Last Quarter

Yesterday's Extremes

State Highs State Lows

Community

WunderPhotos

Upload Photos

1,764,154 photos uploaded!

Nearby

Snow Depth

Station Depth Elevation
No new snow has been reported.

Earthquake Activity

City Distance Mag. Time & Date
No recent earthquake activity has been reported nearby.
Minimum magnitude displayed is 2.5.

Coastal Water Temperatures

Place Temperature
No Stations Reporting

Nearby Weather Stations